Time;durP1;ratioP1;P1;durP2;ratioP2;P2;SDS_P1;SDS_P2;PMS_P1;PMS_P2;Temp;Humidity;BMP_temperature;BMP_pressure;BME280_temperature;BME280_humidity;BME280_pressure;Samples;Min_cycle;Max_cycle;Signal;HPM_P1;HPM_P2
2023/12/25 00:01:20;;;;;;;0.28;0.22;;;;;;;11.19;nan;98599.69;7399714;19;20018;-57
2023/12/25 00:03:46;;;;;;;0.10;0.10;;;;;;;12.18;nan;98592.97;7400351;19;20018;-56
2023/12/25 00:06:12;;;;;;;0.10;0.10;;;;;;;10.44;nan;98591.63;7404559;19;20070;-56
2023/12/25 00:08:38;;;;;;;0.10;0.10;;;;;;;11.68;nan;98581.31;7400599;19;20031;-57
2023/12/25 00:11:04;;;;;;;0.22;0.22;;;;;;;11.16;nan;98586.78;7400227;19;20007;-57
2023/12/25 00:13:30;;;;;;;0.28;0.28;;;;;;;10.88;nan;98591.63;7399797;19;20015;-57
2023/12/25 00:15:57;;;;;;;0.10;0.00;;;;;;;10.31;nan;98589.34;7398900;19;20015;-57
2023/12/25 00:18:23;;;;;;;0.10;0.00;;;;;;;10.01;nan;98577.13;7399867;19;20011;-57
2023/12/25 00:20:49;;;;;;;0.10;0.10;;;;;;;9.63;nan;98580.56;7399066;19;20011;-57
2023/12/25 00:23:15;;;;;;;0.10;0.05;;;;;;;11.52;nan;98579.31;7399361;19;20006;-57
2023/12/25 00:25:42;;;;;;;0.03;0.00;;;;;;;11.23;nan;98566.75;7398829;19;20044;-57
2023/12/25 00:28:08;;;;;;;2.75;0.75;;;;;;;11.72;nan;98561.50;7397751;19;20011;-57
2023/12/25 00:30:34;;;;;;;0.10;0.00;;;;;;;11.90;nan;98561.69;7398002;19;20497;-57
2023/12/25 00:33:00;;;;;;;9.32;0.80;;;;;;;9.76;nan;98572.53;7397520;19;20018;-57
2023/12/25 00:35:26;;;;;;;0.00;0.00;;;;;;;10.99;nan;98569.34;7399380;19;20355;-57
2023/12/25 00:37:52;;;;;;;0.10;0.10;;;;;;;12.96;nan;98575.56;7397833;19;20010;-57
2023/12/25 00:40:19;;;;;;;0.90;0.20;;;;;;;20.36;nan;98560.84;7396930;19;20014;-57
2023/12/25 00:42:45;;;;;;;0.10;0.10;;;;;;;13.16;nan;98566.00;7397304;19;20038;-57
2023/12/25 00:45:11;;;;;;;0.20;0.15;;;;;;;11.26;nan;98576.13;7398378;19;20015;-56
2023/12/25 00:47:37;;;;;;;0.00;0.00;;;;;;;11.99;nan;98575.31;7399632;19;20086;-57
2023/12/25 00:50:03;;;;;;;0.30;0.20;;;;;;;12.32;nan;98568.00;7402847;19;20010;-57
2023/12/25 00:52:29;;;;;;;0.10;0.00;;;;;;;12.28;nan;98568.25;7396233;19;20458;-57
2023/12/25 00:54:56;;;;;;;5.57;0.70;;;;;;;12.05;nan;98573.25;7397735;19;20011;-57
2023/12/25 00:57:22;;;;;;;0.10;0.10;;;;;;;14.84;nan;98573.09;7395252;19;20538;-57
2023/12/25 00:59:48;;;;;;;0.15;0.15;;;;;;;13.26;nan;98587.50;7397954;19;20006;-57
2023/12/25 01:02:14;;;;;;;0.85;0.65;;;;;;;12.82;nan;98590.72;7397416;19;20049;-57
2023/12/25 01:04:40;;;;;;;0.25;0.20;;;;;;;12.76;nan;98601.16;7397714;19;20010;-56
2023/12/25 01:07:07;;;;;;;0.30;0.30;;;;;;;12.68;nan;98594.63;7396159;19;20015;-57
2023/12/25 01:09:33;;;;;;;0.05;0.00;;;;;;;12.90;nan;98586.06;7399399;19;20011;-56
2023/12/25 01:11:59;;;;;;;0.00;0.00;;;;;;;13.00;nan;98566.91;7396692;19;20392;-57
2023/12/25 01:14:25;;;;;;;9.18;0.30;;;;;;;11.68;nan;98572.16;7397911;19;20033;-57
2023/12/25 01:16:51;;;;;;;0.70;0.40;;;;;;;11.54;nan;98589.97;7395706;19;20011;-57
2023/12/25 01:19:18;;;;;;;1.45;0.38;;;;;;;12.49;nan;98593.75;7399529;19;20033;-57
2023/12/25 01:21:44;;;;;;;0.20;0.15;;;;;;;12.19;nan;98588.88;7396842;19;20038;-56
2023/12/25 01:24:10;;;;;;;0.20;0.20;;;;;;;11.83;nan;98589.34;7395549;19;20086;-57
2023/12/25 01:26:36;;;;;;;0.08;0.08;;;;;;;12.54;nan;98596.50;7395761;19;20010;-57
2023/12/25 01:29:02;;;;;;;0.20;0.17;;;;;;;11.93;nan;98599.69;7395448;19;20019;-57
2023/12/25 01:31:28;;;;;;;0.00;0.00;;;;;;;11.13;nan;98595.41;7396355;19;20083;-57
2023/12/25 01:33:54;;;;;;;0.00;0.00;;;;;;;11.24;nan;98592.59;7396516;19;20024;-57
2023/12/25 01:36:21;;;;;;;6.75;0.35;;;;;;;11.00;nan;98603.53;7394182;19;20042;-57
2023/12/25 01:38:47;;;;;;;5.22;0.17;;;;;;;11.01;nan;98605.03;7395399;19;20018;-57
2023/12/25 01:41:13;;;;;;;0.10;0.10;;;;;;;11.52;nan;98600.88;7396214;19;20010;-57
2023/12/25 01:43:39;;;;;;;0.10;0.10;;;;;;;11.71;nan;98599.81;7396218;19;20026;-57
2023/12/25 01:46:05;;;;;;;0.10;0.00;;;;;;;11.24;nan;98601.69;7394141;19;20021;-57
2023/12/25 01:48:32;;;;;;;0.10;0.00;;;;;;;11.34;nan;98596.63;7394174;19;20011;-57
2023/12/25 01:51:00;;;;;;;0.55;0.40;;;;;;;12.59;nan;98598.50;7395649;19;20033;-57
2023/12/25 01:53:28;;;;;;;0.10;0.00;;;;;;;13.18;nan;98592.16;7394998;19;20090;-57
2023/12/25 01:55:54;;;;;;;0.85;0.70;;;;;;;12.97;nan;98587.53;7395523;19;20019;-57
2023/12/25 01:58:20;;;;;;;0.40;0.30;;;;;;;13.23;nan;98577.34;7394526;19;20336;-57
2023/12/25 02:00:46;;;;;;;0.32;0.22;;;;;;;12.16;nan;98583.59;7394192;19;20458;-57
2023/12/25 02:03:12;;;;;;;0.10;0.10;;;;;;;13.34;nan;98594.00;7394245;19;20010;-57
2023/12/25 02:05:39;;;;;;;4.30;0.73;;;;;;;11.23;nan;98583.47;7397367;19;20014;-57
2023/12/25 02:08:07;;;;;;;0.40;0.30;;;;;;;10.84;nan;98590.38;7395660;19;20340;-57
2023/12/25 02:10:33;;;;;;;0.00;0.00;;;;;;;10.68;nan;98589.88;7398080;19;20018;-57
2023/12/25 02:13:02;;;;;;;0.15;0.10;;;;;;;10.91;nan;98589.88;7394431;19;20037;-57
2023/12/25 02:15:28;;;;;;;0.10;0.10;;;;;;;10.81;nan;98599.72;7395430;19;20093;-57
2023/12/25 02:17:55;;;;;;;0.45;0.28;;;;;;;10.88;nan;98597.22;7392766;19;20034;-57
2023/12/25 02:20:23;;;;;;;1.45;0.70;;;;;;;10.74;nan;98600.25;7398920;19;20400;-57
2023/12/25 02:22:50;;;;;;;0.10;0.10;;;;;;;10.93;nan;98593.66;7394741;19;20014;-57
2023/12/25 02:25:33;;;;;;;0.43;0.20;;;;;;;11.49;nan;98610.25;7394678;19;20011;-57
2023/12/25 02:28:03;;;;;;;1.75;0.10;;;;;;;10.64;nan;98606.09;7393223;19;20494;-57
2023/12/25 02:30:30;;;;;;;0.08;0.08;;;;;;;10.70;nan;98616.47;7399174;19;20009;-57
2023/12/25 02:32:56;;;;;;;0.10;0.00;;;;;;;11.38;nan;98611.03;7394464;19;20038;-57
2023/12/25 02:35:22;;;;;;;0.15;0.15;;;;;;;11.02;nan;98607.31;7393087;19;20350;-57
2023/12/25 02:37:49;;;;;;;0.45;0.20;;;;;;;10.70;nan;98619.25;7395730;19;20021;-57
2023/12/25 02:40:15;;;;;;;0.85;0.25;;;;;;;10.63;nan;98615.69;7398472;19;20011;-57
2023/12/25 02:42:41;;;;;;;0.10;0.08;;;;;;;10.72;nan;98616.72;7393398;19;20015;-57
2023/12/25 02:45:08;;;;;;;0.10;0.00;;;;;;;10.66;nan;98611.13;7394396;19;20343;-57
2023/12/25 02:47:34;;;;;;;1.05;0.38;;;;;;;11.05;nan;98608.31;7394781;19;20040;-57
2023/12/25 02:50:00;;;;;;;4.47;0.20;;;;;;;10.64;nan;98611.66;7394995;19;20470;-57
2023/12/25 02:52:26;;;;;;;0.10;0.10;;;;;;;11.75;nan;98610.69;7396758;19;20007;-57
2023/12/25 02:54:52;;;;;;;1.08;0.20;;;;;;;10.80;nan;98612.16;7393721;19;20014;-57
2023/12/25 02:57:18;;;;;;;0.63;0.20;;;;;;;10.43;nan;98613.16;7390476;19;20019;-57
2023/12/25 02:59:45;;;;;;;0.10;0.10;;;;;;;10.39;nan;98618.22;7395082;19;20031;-57
2023/12/25 03:02:11;;;;;;;1.65;0.30;;;;;;;10.40;nan;98628.06;7392915;19;20014;-57
2023/12/25 03:04:37;;;;;;;0.13;0.13;;;;;;;10.51;nan;98636.44;7393475;19;20336;-57
2023/12/25 03:07:03;;;;;;;0.10;0.10;;;;;;;10.63;nan;98637.97;7394780;19;20762;-57
2023/12/25 03:09:29;;;;;;;0.10;0.10;;;;;;;10.29;nan;98616.94;7393652;19;20014;-57
2023/12/25 03:11:55;;;;;;;0.57;0.52;;;;;;;10.07;nan;98632.78;7393479;19;20007;-57
2023/12/25 03:14:21;;;;;;;0.10;0.00;;;;;;;10.14;nan;98641.44;7391539;19;20030;-57
2023/12/25 03:16:47;;;;;;;0.17;0.10;;;;;;;10.04;nan;98642.91;7392317;19;20034;-57
2023/12/25 03:19:14;;;;;;;0.45;0.30;;;;;;;10.14;nan;98649.78;7391040;19;20014;-57
2023/12/25 03:21:40;;;;;;;0.20;0.10;;;;;;;10.16;nan;98644.47;7395573;19;20057;-55
2023/12/25 03:24:06;;;;;;;1.55;0.65;;;;;;;9.56;nan;98653.31;7394974;19;20021;-57
2023/12/25 03:26:33;;;;;;;1.55;0.43;;;;;;;9.86;nan;98655.22;7393681;19;20038;-57
2023/12/25 03:29:00;;;;;;;0.10;0.10;;;;;;;9.74;nan;98644.56;7394321;19;20018;-57
2023/12/25 03:31:26;;;;;;;2.92;0.47;;;;;;;9.92;nan;98646.88;7398785;19;20462;-57
2023/12/25 03:33:52;;;;;;;7.03;0.43;;;;;;;9.87;nan;98647.66;7400381;19;20010;-57
2023/12/25 03:36:19;;;;;;;0.15;0.15;;;;;;;9.86;nan;98654.44;7400726;19;20025;-57
2023/12/25 03:38:46;;;;;;;0.30;0.20;;;;;;;9.61;nan;98655.38;7401401;19;20024;-57
2023/12/25 03:41:12;;;;;;;6.25;1.05;;;;;;;9.64;nan;98662.69;7401287;19;20463;-57
2023/12/25 03:43:40;;;;;;;0.10;0.10;;;;;;;9.79;nan;98647.34;7398842;19;20011;-57
2023/12/25 03:46:07;;;;;;;0.57;0.28;;;;;;;9.65;nan;98665.00;7398899;19;20015;-57
2023/12/25 03:48:33;;;;;;;0.35;0.15;;;;;;;9.91;nan;98651.72;7397533;19;20471;-57
2023/12/25 03:50:59;;;;;;;1.13;0.05;;;;;;;9.85;nan;98652.94;7400092;19;20038;-57
2023/12/25 03:53:26;;;;;;;0.10;0.10;;;;;;;10.25;nan;98635.91;7398324;19;20011;-57
2023/12/25 03:55:53;;;;;;;0.10;0.03;;;;;;;10.27;nan;98641.72;7397500;19;20021;-57
2023/12/25 03:58:19;;;;;;;0.17;0.15;;;;;;;10.40;nan;98635.66;7397088;19;20466;-57
2023/12/25 04:00:45;;;;;;;0.57;0.10;;;;;;;10.45;nan;98630.13;7397478;19;20474;-56
2023/12/25 04:03:11;;;;;;;1.83;0.05;;;;;;;9.92;nan;98641.31;7398023;19;20007;-56
2023/12/25 04:05:37;;;;;;;0.65;0.65;;;;;;;9.80;nan;98634.22;7400566;19;20011;-57
2023/12/25 04:08:04;;;;;;;0.10;0.10;;;;;;;9.65;nan;98622.53;7401133;19;20033;-57
2023/12/25 04:10:30;;;;;;;0.05;0.05;;;;;;;10.10;nan;98623.44;7400958;19;20022;-57
2023/12/25 04:12:57;;;;;;;0.10;0.10;;;;;;;9.79;nan;98632.69;7395957;19;20102;-57
2023/12/25 04:15:23;;;;;;;0.57;0.20;;;;;;;9.79;nan;98621.56;7395478;19;20034;-57
2023/12/25 04:17:49;;;;;;;9.75;0.50;;;;;;;9.94;nan;98599.88;7395258;19;20017;-57
2023/12/25 04:20:16;;;;;;;0.90;0.43;;;;;;;10.14;nan;98616.38;7398117;19;20371;-57
2023/12/25 04:22:42;;;;;;;0.15;0.05;;;;;;;9.56;nan;98614.41;7398181;19;20033;-57
2023/12/25 04:25:09;;;;;;;0.05;0.05;;;;;;;9.61;nan;98613.69;7399034;19;20010;-57
2023/12/25 04:27:35;;;;;;;0.10;0.10;;;;;;;10.09;nan;98616.38;7398438;19;20014;-57
2023/12/25 04:30:01;;;;;;;0.30;0.05;;;;;;;10.51;nan;98608.59;7397171;19;20026;-57
2023/12/25 04:32:28;;;;;;;0.28;0.28;;;;;;;10.00;nan;98613.81;7395402;19;20102;-57
2023/12/25 04:34:54;;;;;;;0.10;0.10;;;;;;;10.13;nan;98617.66;7397161;19;20010;-57
2023/12/25 04:37:20;;;;;;;0.10;0.00;;;;;;;10.14;nan;98621.19;7399313;19;20078;-57
2023/12/25 04:39:46;;;;;;;0.90;0.22;;;;;;;9.96;nan;98625.19;7399228;19;20011;-57
2023/12/25 04:42:13;;;;;;;0.45;0.20;;;;;;;10.42;nan;98619.97;7397211;19;20074;-57
2023/12/25 04:44:39;;;;;;;0.90;0.43;;;;;;;10.04;nan;98620.66;7399040;19;20477;-57
2023/12/25 04:47:05;;;;;;;0.55;0.32;;;;;;;10.07;nan;98625.19;7399487;19;20006;-57
2023/12/25 04:49:32;;;;;;;0.38;0.30;;;;;;;10.60;nan;98616.72;7394878;19;20002;-57
2023/12/25 04:51:58;;;;;;;0.10;0.00;;;;;;;10.12;nan;98620.94;7398646;19;20465;-57
2023/12/25 04:54:24;;;;;;;0.10;0.00;;;;;;;10.49;nan;98633.41;7397475;19;20018;-57
2023/12/25 04:56:52;;;;;;;0.55;0.20;;;;;;;10.75;nan;98624.03;7396891;19;20380;-57
2023/12/25 04:59:20;;;;;;;0.30;0.30;;;;;;;10.58;nan;98613.69;7392376;19;20014;-57
2023/12/25 05:01:49;;;;;;;0.10;0.10;;;;;;;10.19;nan;98617.66;7393121;19;20014;-57
2023/12/25 05:04:15;;;;;;;0.10;0.00;;;;;;;10.39;nan;98611.88;7398376;19;20750;-57
2023/12/25 05:06:42;;;;;;;0.20;0.20;;;;;;;10.61;nan;98618.22;7397735;19;20018;-57
2023/12/25 05:09:09;;;;;;;0.10;0.10;;;;;;;10.62;nan;98630.88;7396115;19;20070;-57
2023/12/25 05:11:35;;;;;;;10.88;0.30;;;;;;;10.77;nan;98627.06;7399046;19;20020;-57
2023/12/25 05:14:01;;;;;;;0.10;0.00;;;;;;;10.97;nan;98629.59;7392862;19;20066;-57
2023/12/25 05:16:28;;;;;;;2.72;0.75;;;;;;;10.84;nan;98635.69;7395705;19;20494;-57
2023/12/25 05:18:54;;;;;;;0.63;0.47;;;;;;;11.05;nan;98636.19;7394124;19;20018;-57
2023/12/25 05:21:20;;;;;;;0.10;0.10;;;;;;;10.97;nan;98637.97;7393134;19;20549;-57
2023/12/25 05:23:46;;;;;;;0.10;0.10;;;;;;;10.89;nan;98625.81;7393213;19;20463;-57
2023/12/25 05:26:12;;;;;;;0.10;0.00;;;;;;;10.36;nan;98635.91;7393623;19;20078;-57
2023/12/25 05:28:39;;;;;;;5.80;2.30;;;;;;;10.10;nan;98640.88;7395781;19;20014;-57
2023/12/25 05:31:05;;;;;;;0.43;0.43;;;;;;;10.14;nan;98644.22;7393382;19;20011;-57
2023/12/25 05:33:31;;;;;;;0.10;0.05;;;;;;;10.44;nan;98641.72;7394089;19;20022;-57
2023/12/25 05:35:57;;;;;;;0.10;0.00;;;;;;;9.94;nan;98627.69;7392125;19;20430;-57
2023/12/25 05:38:24;;;;;;;0.40;0.20;;;;;;;10.08;nan;98637.84;7397354;19;20014;-57
2023/12/25 05:40:50;;;;;;;2.92;0.20;;;;;;;10.05;nan;98638.09;7393429;19;20010;-57
2023/12/25 05:43:16;;;;;;;0.50;0.30;;;;;;;9.94;nan;98639.56;7392602;19;20014;-57
2023/12/25 05:45:42;;;;;;;1.15;0.38;;;;;;;9.89;nan;98651.44;7392870;19;20006;-57
2023/12/25 05:48:08;;;;;;;1.00;0.17;;;;;;;9.67;nan;98653.38;7392330;19;20043;-57
2023/12/25 05:50:35;;;;;;;0.10;0.10;;;;;;;9.44;nan;98655.25;7394224;19;20038;-57
2023/12/25 05:53:01;;;;;;;0.10;0.10;;;;;;;9.96;nan;98661.34;7389874;19;20022;-57
2023/12/25 05:55:27;;;;;;;0.10;0.10;;;;;;;9.86;nan;98662.78;7393169;19;20032;-57
2023/12/25 05:57:53;;;;;;;0.15;0.00;;;;;;;9.06;nan;98676.00;7395266;19;20037;-57
2023/12/25 06:00:19;;;;;;;0.28;0.28;;;;;;;9.03;nan;98687.34;7394706;19;20018;-57
2023/12/25 06:02:45;;;;;;;0.10;0.00;;;;;;;9.06;nan;98676.00;7397301;19;20009;-57
2023/12/25 06:05:12;;;;;;;11.77;0.32;;;;;;;9.18;nan;98674.81;7396294;19;20014;-57
2023/12/25 06:07:38;;;;;;;0.10;0.10;;;;;;;9.08;nan;98670.69;7398338;19;20032;-57
2023/12/25 06:10:04;;;;;;;3.15;1.00;;;;;;;9.11;nan;98680.84;7393698;19;20032;-57
2023/12/25 06:12:30;;;;;;;0.13;0.10;;;;;;;9.20;nan;98676.34;7394208;19;20006;-57
2023/12/25 06:14:57;;;;;;;0.17;0.17;;;;;;;9.23;nan;98686.44;7397635;19;20013;-57
2023/12/25 06:17:24;;;;;;;0.10;0.10;;;;;;;9.20;nan;98681.88;7393383;19;20010;-57
2023/12/25 06:19:50;;;;;;;0.10;0.10;;;;;;;9.97;nan;98676.75;7394162;19;20329;-56
2023/12/25 06:22:16;;;;;;;0.30;0.25;;;;;;;9.67;nan;98681.94;7398670;19;20010;-56
2023/12/25 06:24:42;;;;;;;0.10;0.10;;;;;;;9.34;nan;98686.53;7397543;19;20014;-57
2023/12/25 06:27:08;;;;;;;0.10;0.00;;;;;;;9.08;nan;98681.81;7399092;19;20018;-57
2023/12/25 06:29:34;;;;;;;1.38;0.25;;;;;;;9.07;nan;98696.94;7393233;19;20017;-57
2023/12/25 06:32:00;;;;;;;5.10;0.55;;;;;;;9.12;nan;98682.34;7395431;19;20010;-56
2023/12/25 06:34:26;;;;;;;0.10;0.00;;;;;;;9.06;nan;98687.09;7395122;19;20066;-57
2023/12/25 06:36:52;;;;;;;0.63;0.50;;;;;;;9.11;nan;98691.19;7397701;19;20015;-56
2023/12/25 06:39:19;;;;;;;0.55;0.55;;;;;;;9.11;nan;98691.94;7394156;19;20011;-57
2023/12/25 06:41:45;;;;;;;0.10;0.10;;;;;;;9.00;nan;98691.84;7394768;19;20015;-57
2023/12/25 06:44:11;;;;;;;2.38;0.25;;;;;;;9.39;nan;98699.69;7393908;19;20013;-56
2023/12/25 06:46:37;;;;;;;0.10;0.10;;;;;;;9.48;nan;98697.50;7394849;19;20031;-56
2023/12/25 06:49:03;;;;;;;0.50;0.47;;;;;;;9.14;nan;98696.50;7391051;19;21452;-56
2023/12/25 06:51:29;;;;;;;2.75;0.40;;;;;;;9.06;nan;98694.66;7396104;19;20110;-57
2023/12/25 06:53:55;;;;;;;0.10;0.10;;;;;;;9.16;nan;98698.78;7394197;19;20040;-57
2023/12/25 06:56:23;;;;;;;0.10;0.00;;;;;;;9.13;nan;98689.44;7395107;19;20127;-57
2023/12/25 06:58:49;;;;;;;0.25;0.25;;;;;;;9.28;nan;98688.50;7394118;19;20469;-57
2023/12/25 07:01:21;;;;;;;0.20;0.20;;;;;;;8.92;nan;98685.22;7392623;19;20015;-56
2023/12/25 07:03:47;;;;;;;0.22;0.10;;;;;;;8.92;nan;98685.22;7393594;19;20107;-57
2023/12/25 07:06:13;;;;;;;6.95;1.17;;;;;;;9.57;nan;98688.19;7395959;19;20517;-56
2023/12/25 07:08:39;;;;;;;3.17;0.50;;;;;;;9.30;nan;98686.75;7396136;19;20047;-56
2023/12/25 07:11:05;;;;;;;9.07;0.40;;;;;;;8.99;nan;98690.31;7393295;19;20037;-56
2023/12/25 07:13:36;;;;;;;1.00;0.45;;;;;;;9.77;nan;98676.91;7393656;19;20014;-57
2023/12/25 07:16:04;;;;;;;0.17;0.13;;;;;;;10.01;nan;98680.03;7391131;19;20014;-56
2023/12/25 07:18:30;;;;;;;2.38;0.50;;;;;;;10.06;nan;98679.31;7396994;19;20006;-57
2023/12/25 07:20:56;;;;;;;2.28;0.40;;;;;;;10.04;nan;98692.19;7392183;19;20011;-57
2023/12/25 07:23:22;;;;;;;0.43;0.20;;;;;;;9.67;nan;98693.06;7393027;19;20021;-57
2023/12/25 07:25:48;;;;;;;0.10;0.00;;;;;;;10.47;nan;98686.03;7393126;19;20014;-56
2023/12/25 07:28:14;;;;;;;1.83;1.00;;;;;;;9.80;nan;98673.13;7396259;19;20053;-57
2023/12/25 07:30:43;;;;;;;0.10;0.10;;;;;;;9.58;nan;98673.03;7393365;19;20019;-57
2023/12/25 07:33:10;;;;;;;0.10;0.00;;;;;;;9.07;nan;98685.09;7392094;19;20015;-57
2023/12/25 07:35:36;;;;;;;0.65;0.63;;;;;;;9.16;nan;98688.44;7391786;19;20017;-56
2023/12/25 07:38:02;;;;;;;0.90;0.57;;;;;;;9.27;nan;98689.78;7394299;19;20010;-56
2023/12/25 07:40:28;;;;;;;10.05;0.57;;;;;;;9.36;nan;98690.34;7395192;19;20018;-57
2023/12/25 07:42:54;;;;;;;0.52;0.52;;;;;;;9.07;nan;98694.16;7390993;19;20011;-56
2023/12/25 07:45:20;;;;;;;0.20;0.10;;;;;;;9.39;nan;98685.81;7390999;19;20013;-57
2023/12/25 07:47:47;;;;;;;11.68;1.48;;;;;;;9.66;nan;98685.19;7389404;19;20058;-56
2023/12/25 07:50:13;;;;;;;8.35;0.85;;;;;;;9.56;nan;98693.00;7388770;19;20010;-57
2023/12/25 07:52:39;;;;;;;0.60;0.60;;;;;;;9.15;nan;98691.72;7396003;19;20376;-56
2023/12/25 07:55:06;;;;;;;0.80;0.20;;;;;;;8.94;nan;98688.25;7392230;19;20007;-57
2023/12/25 07:57:32;;;;;;;0.20;0.20;;;;;;;8.59;nan;98696.03;7391701;19;20078;-56
2023/12/25 07:59:58;;;;;;;0.20;0.20;;;;;;;8.98;nan;98715.81;7391633;19;20011;-57
2023/12/25 08:02:24;;;;;;;0.10;0.10;;;;;;;8.78;nan;98708.31;7393755;19;20021;-57
2023/12/25 08:04:50;;;;;;;0.52;0.20;;;;;;;8.51;nan;98717.13;7394059;19;20010;-56
2023/12/25 08:07:16;;;;;;;1.05;0.63;;;;;;;8.72;nan;98707.50;7394464;19;20006;-56
2023/12/25 08:09:42;;;;;;;0.47;0.32;;;;;;;8.22;nan;98717.28;7393772;19;20003;-56
2023/12/25 08:12:08;;;;;;;0.15;0.15;;;;;;;8.21;nan;98724.06;7393219;19;20014;-56
2023/12/25 08:14:35;;;;;;;5.00;0.30;;;;;;;8.38;nan;98719.53;7391249;19;20029;-56
2023/12/25 08:17:01;;;;;;;0.10;0.00;;;;;;;8.67;nan;98727.63;7401401;19;20010;-56
2023/12/25 08:19:28;;;;;;;1.15;0.43;;;;;;;8.52;nan;98726.97;7397111;19;20320;-56
2023/12/25 08:21:54;;;;;;;0.30;0.20;;;;;;;8.48;nan;98728.44;7396664;19;20021;-56
2023/12/25 08:24:20;;;;;;;1.13;1.02;;;;;;;8.90;nan;98726.59;7398274;19;20014;-56
2023/12/25 08:26:46;;;;;;;2.00;1.10;;;;;;;8.68;nan;98747.84;7397604;19;20037;-56
2023/12/25 08:29:12;;;;;;;3.92;1.15;;;;;;;9.14;nan;98742.94;7397720;19;20126;-56
2023/12/25 08:31:39;;;;;;;3.42;0.88;;;;;;;9.50;nan;98741.47;7398830;19;20031;-56
2023/12/25 08:34:05;;;;;;;1.65;0.47;;;;;;;8.97;nan;98742.03;7397895;19;20014;-57
2023/12/25 08:36:31;;;;;;;0.82;0.47;;;;;;;9.31;nan;98741.09;7398674;19;20050;-57
2023/12/25 08:38:58;;;;;;;8.82;1.35;;;;;;;9.51;nan;98748.53;7399980;19;20007;-56
2023/12/25 08:41:24;;;;;;;1.20;0.90;;;;;;;8.81;nan;98751.75;7398476;19;20450;-56
2023/12/25 08:43:50;;;;;;;1.55;0.40;;;;;;;10.20;nan;98761.84;7398402;19;20019;-56
2023/12/25 08:46:16;;;;;;;0.40;0.40;;;;;;;9.16;nan;98759.88;7397456;19;20015;-56
2023/12/25 08:48:44;;;;;;;2.38;0.22;;;;;;;9.71;nan;98757.50;7396866;19;20038;-56
2023/12/25 08:51:12;;;;;;;0.38;0.25;;;;;;;10.01;nan;98762.72;7401551;19;20007;-56
2023/12/25 08:53:38;;;;;;;0.28;0.28;;;;;;;11.32;nan;98769.16;7401434;19;20127;-56
2023/12/25 08:56:05;;;;;;;0.15;0.15;;;;;;;10.24;nan;98778.31;7399332;19;20007;-56
2023/12/25 08:58:31;;;;;;;0.63;0.10;;;;;;;9.81;nan;98775.50;7398739;19;20031;-56
2023/12/25 09:00:57;;;;;;;0.15;0.13;;;;;;;10.80;nan;98752.16;7399957;19;20010;-56
2023/12/25 09:03:23;;;;;;;0.50;0.50;;;;;;;11.14;nan;98752.94;7400857;19;20015;-57
2023/12/25 09:05:50;;;;;;;7.88;0.45;;;;;;;11.08;nan;98766.13;7399646;19;20006;-57
2023/12/25 09:08:17;;;;;;;0.90;0.75;;;;;;;11.76;nan;98774.72;7399125;19;20017;-57
2023/12/25 09:10:43;;;;;;;1.17;0.20;;;;;;;13.37;nan;98776.78;7399173;19;20362;-57
2023/12/25 09:13:09;;;;;;;1.73;0.63;;;;;;;12.70;nan;98782.00;7400353;19;20006;-57
2023/12/25 09:15:35;;;;;;;3.17;0.30;;;;;;;12.58;nan;98774.97;7398928;19;20015;-57
2023/12/25 09:18:01;;;;;;;0.13;0.13;;;;;;;12.53;nan;98779.31;7402982;19;20019;-57
2023/12/25 09:20:27;;;;;;;0.20;0.20;;;;;;;12.52;nan;98777.78;7401838;19;20026;-57
2023/12/25 09:22:53;;;;;;;0.85;0.32;;;;;;;12.65;nan;98772.38;7400622;19;20018;-57
2023/12/25 09:25:19;;;;;;;0.68;0.22;;;;;;;12.65;nan;98752.06;7400010;19;20003;-57
2023/12/25 09:27:45;;;;;;;3.65;0.32;;;;;;;12.92;nan;98731.59;7398447;19;20486;-57
2023/12/25 09:30:12;;;;;;;0.85;0.20;;;;;;;12.66;nan;98734.81;7396129;19;20006;-57
2023/12/25 09:32:40;;;;;;;0.60;0.45;;;;;;;12.45;nan;98744.81;7399236;19;20498;-57
2023/12/25 09:35:08;;;;;;;2.58;0.47;;;;;;;12.74;nan;98746.94;7399685;19;20467;-57
2023/12/25 09:37:36;;;;;;;5.38;0.45;;;;;;;12.11;nan;98754.59;7396698;19;20015;-57
2023/12/25 09:40:02;;;;;;;0.45;0.32;;;;;;;11.81;nan;98771.19;7399621;19;20091;-57
2023/12/25 09:42:28;;;;;;;6.95;0.63;;;;;;;11.42;nan;98778.78;7399790;19;20025;-57
2023/12/25 09:44:55;;;;;;;0.98;0.25;;;;;;;13.39;nan;98769.38;7400557;19;20426;-57
2023/12/25 09:47:21;;;;;;;1.55;0.50;;;;;;;14.27;nan;98758.59;7396381;19;20038;-57
2023/12/25 09:49:47;;;;;;;2.83;0.30;;;;;;;13.37;nan;98752.38;7394810;19;20087;-57
2023/12/25 09:52:16;;;;;;;5.40;0.47;;;;;;;14.32;nan;98757.75;7395192;19;20051;-57
2023/12/25 09:54:44;;;;;;;0.15;0.08;;;;;;;13.35;nan;98757.72;7395945;19;20002;-57
2023/12/25 09:57:12;;;;;;;0.17;0.17;;;;;;;12.44;nan;98753.72;7394706;19;20078;-56
2023/12/25 09:59:41;;;;;;;4.95;0.75;;;;;;;12.40;nan;98748.41;7398905;19;20018;-57
2023/12/25 10:02:08;;;;;;;0.85;0.60;;;;;;;12.34;nan;98749.69;7398840;19;20074;-57
2023/12/25 10:04:37;;;;;;;0.88;0.30;;;;;;;12.23;nan;98749.75;7398750;19;20022;-57
2023/12/25 10:07:03;;;;;;;0.43;0.35;;;;;;;11.52;nan;98743.78;7395786;19;20006;-57
2023/12/25 10:09:30;;;;;;;0.20;0.20;;;;;;;10.99;nan;98746.84;7394249;19;20019;-57
2023/12/25 10:11:56;;;;;;;0.63;0.35;;;;;;;11.37;nan;98751.66;7394901;19;20477;-57
2023/12/25 10:14:22;;;;;;;0.47;0.35;;;;;;;10.79;nan;98756.19;7398253;19;20025;-57
2023/12/25 10:16:49;;;;;;;0.22;0.20;;;;;;;11.57;nan;98761.78;7395599;19;20026;-57
2023/12/25 10:19:16;;;;;;;0.40;0.40;;;;;;;10.81;nan;98769.59;7394937;19;20466;-57
2023/12/25 10:21:43;;;;;;;0.30;0.30;;;;;;;11.55;nan;98765.09;7397280;19;20459;-57
2023/12/25 10:24:14;;;;;;;7.18;0.38;;;;;;;11.82;nan;98767.13;7396524;19;20010;-57
2023/12/25 10:26:43;;;;;;;0.43;0.43;;;;;;;11.72;nan;98779.81;7399236;19;20006;-57
2023/12/25 10:29:09;;;;;;;1.23;0.38;;;;;;;11.66;nan;98779.03;7397768;19;20074;-57
2023/12/25 10:31:43;;;;;;;9.43;1.10;;;;;;;11.67;nan;98797.31;7399017;19;20034;-57
2023/12/25 10:34:09;;;;;;;3.70;0.43;;;;;;;11.90;nan;98800.81;7399134;19;20018;-57
2023/12/25 10:36:35;;;;;;;1.95;0.70;;;;;;;11.84;nan;98798.06;7394848;19;20015;-57
2023/12/25 10:39:02;;;;;;;0.80;0.50;;;;;;;11.88;nan;98792.97;7395000;19;20350;-59
2023/12/25 10:41:32;;;;;;;9.32;0.80;;;;;;;11.83;nan;98796.53;7396317;19;20025;-59
2023/12/25 10:44:00;;;;;;;4.28;0.55;;;;;;;12.48;nan;98790.50;7398223;19;20011;-59
2023/12/25 10:46:34;;;;;;;2.10;0.45;;;;;;;11.16;nan;98795.00;7395841;19;20082;-59
2023/12/25 10:49:03;;;;;;;5.47;0.40;;;;;;;11.81;nan;98776.75;7396548;19;20014;-59
2023/12/25 10:51:37;;;;;;;0.70;0.30;;;;;;;12.50;nan;98768.41;7396938;19;20459;-59
2023/12/25 10:54:04;;;;;;;0.43;0.10;;;;;;;13.27;nan;98761.59;7393658;19;20018;-59
2023/12/25 10:56:32;;;;;;;6.10;0.28;;;;;;;13.38;nan;98767.84;7394191;19;20010;-59
2023/12/25 10:59:32;;;;;;;13.15;0.98;;;;;;;13.31;nan;98776.81;7397026;19;20010;-59
2023/12/25 11:02:03;;;;;;;0.20;0.13;;;;;;;12.58;nan;98774.97;7395669;19;20007;-59
2023/12/25 11:04:30;;;;;;;0.52;0.10;;;;;;;14.10;nan;98769.19;7392783;19;20025;-59
2023/12/25 11:06:58;;;;;;;5.57;1.02;;;;;;;14.18;nan;98761.75;7391612;19;20048;-60
2023/12/25 11:09:25;;;;;;;0.40;0.10;;;;;;;13.37;nan;98771.94;7393675;19;20426;-60
2023/12/25 11:11:52;;;;;;;5.25;0.65;;;;;;;12.88;nan;98761.84;7392877;19;20014;-59
2023/12/25 11:14:18;;;;;;;1.30;0.65;;;;;;;12.41;nan;98757.56;7392679;19;20022;-59
2023/12/25 11:16:46;;;;;;;0.45;0.20;;;;;;;12.44;nan;98753.72;7391319;19;20019;-59
2023/12/25 11:19:12;;;;;;;1.52;0.45;;;;;;;12.52;nan;98735.13;7393897;19;20018;-59
2023/12/25 11:21:38;;;;;;;0.25;0.20;;;;;;;12.27;nan;98739.06;7396580;19;20011;-59
2023/12/25 11:24:07;;;;;;;1.23;0.20;;;;;;;13.08;nan;98736.31;7394106;19;20017;-59
2023/12/25 11:26:34;;;;;;;2.28;0.13;;;;;;;13.36;nan;98728.47;7393818;19;20010;-58
2023/12/25 11:29:15;;;;;;;0.43;0.35;;;;;;;12.92;nan;98737.19;7395040;19;20014;-59
2023/12/25 11:31:45;;;;;;;7.82;0.43;;;;;;;13.05;nan;98736.59;7394424;19;20010;-58
2023/12/25 11:34:32;;;;;;;1.77;0.90;;;;;;;13.60;nan;98722.91;7395815;19;20027;-58
2023/12/25 11:36:59;;;;;;;4.13;1.13;;;;;;;13.56;nan;98716.06;7395602;19;20015;-58
2023/12/25 11:39:27;;;;;;;2.28;0.60;;;;;;;13.57;nan;98715.56;7395355;19;20033;-58
2023/12/25 11:41:54;;;;;;;6.53;1.10;;;;;;;12.77;nan;98708.84;7391746;19;20017;-58
2023/12/25 11:44:34;;;;;;;5.88;0.57;;;;;;;12.54;nan;98713.06;7391707;19;20348;-60
2023/12/25 11:47:02;;;;;;;5.82;1.05;;;;;;;12.31;nan;98714.44;7390848;19;20463;-58
2023/12/25 11:49:31;;;;;;;2.30;0.77;;;;;;;12.30;nan;98712.94;7394151;19;20045;-59
2023/12/25 11:51:57;;;;;;;0.52;0.25;;;;;;;12.53;nan;98706.72;7399808;19;20501;-60